Time;durP1;ratioP1;P1;durP2;ratioP2;P2;SDS_P1;SDS_P2;PMS_P1;PMS_P2;Temp;Humidity;BMP_temperature;BMP_pressure;BME280_temperature;BME280_humidity;BME280_pressure;Samples;Min_cycle;Max_cycle;Signal;HPM_P1;HPM_P2
2021/08/08 00:02:04;;;;;;;1.27;0.85;;;14.10;99.90;;;;;;2034540;70;21075;-71
2021/08/08 00:04:30;;;;;;;1.92;0.93;;;14.20;99.90;;;;;;2034527;69;21167;-71
2021/08/08 00:06:56;;;;;;;5.05;1.05;;;14.20;99.90;;;;;;2034568;70;21038;-71
2021/08/08 00:09:22;;;;;;;2.47;0.70;;;14.10;99.90;;;;;;2034205;70;21156;-71
2021/08/08 00:11:50;;;;;;;1.90;1.00;;;14.20;99.90;;;;;;2034541;70;21456;-71
2021/08/08 00:14:16;;;;;;;1.37;0.85;;;14.10;99.90;;;;;;2034178;69;21091;-71
2021/08/08 00:16:42;;;;;;;0.65;0.62;;;14.20;99.90;;;;;;2034415;70;21029;-71
2021/08/08 00:19:08;;;;;;;3.05;0.90;;;14.10;99.90;;;;;;2034232;70;21063;-71
2021/08/08 00:21:34;;;;;;;1.77;1.00;;;14.10;99.90;;;;;;2034419;70;21134;-71
2021/08/08 00:24:00;;;;;;;1.52;0.90;;;14.10;99.90;;;;;;2034201;70;21068;-71
2021/08/08 00:26:27;;;;;;;1.10;1.00;;;14.10;99.90;;;;;;2034525;70;21043;-71
2021/08/08 00:28:53;;;;;;;3.77;1.10;;;14.10;99.90;;;;;;2034187;70;21087;-71
2021/08/08 00:31:23;;;;;;;2.98;0.72;;;14.10;99.90;;;;;;2034631;70;21483;-71
2021/08/08 00:33:47;;;;;;;2.05;0.82;;;14.10;99.90;;;;;;2033290;70;21059;-71
2021/08/08 00:36:13;;;;;;;0.82;0.78;;;14.10;99.90;;;;;;2034227;70;21064;-71
2021/08/08 00:38:40;;;;;;;2.00;1.20;;;14.10;99.90;;;;;;2034262;70;21132;-71
2021/08/08 00:41:06;;;;;;;2.80;1.00;;;14.10;99.90;;;;;;2034314;70;21038;-71
2021/08/08 00:43:32;;;;;;;1.65;0.80;;;14.10;99.90;;;;;;2034283;70;21034;-71
2021/08/08 00:45:58;;;;;;;1.52;0.85;;;14.20;99.90;;;;;;2034412;70;21159;-72
2021/08/08 00:48:24;;;;;;;2.70;0.90;;;14.20;99.90;;;;;;2019873;70;21132;-71
2021/08/08 00:50:50;;;;;;;18.62;1.10;;;14.20;99.90;;;;;;2034293;70;21120;-71
2021/08/08 00:53:16;;;;;;;5.97;1.07;;;14.20;99.90;;;;;;2034396;70;21039;-71
2021/08/08 00:55:42;;;;;;;0.90;0.90;;;14.30;99.90;;;;;;2034182;70;21071;-71
2021/08/08 00:58:09;;;;;;;1.95;0.80;;;14.30;99.90;;;;;;2034392;70;21047;-71
2021/08/08 01:00:35;;;;;;;3.22;1.00;;;14.30;99.90;;;;;;2034270;70;21052;-71
2021/08/08 01:03:01;;;;;;;1.45;0.70;;;14.50;99.90;;;;;;2034416;70;21470;-71
2021/08/08 01:05:27;;;;;;;6.53;0.88;;;14.50;99.90;;;;;;2001023;70;21032;-71
2021/08/08 01:07:54;;;;;;;1.10;1.00;;;14.50;99.90;;;;;;2030637;70;21027;-71
2021/08/08 01:10:20;;;;;;;1.57;0.80;;;14.50;99.90;;;;;;2034217;69;21131;-71
2021/08/08 01:12:46;;;;;;;0.80;0.75;;;14.50;99.90;;;;;;2034263;70;21028;-71
2021/08/08 01:15:12;;;;;;;0.88;0.75;;;14.50;99.90;;;;;;2034282;70;21059;-71
2021/08/08 01:17:38;;;;;;;3.75;0.93;;;14.50;99.90;;;;;;2034288;70;21103;-71
2021/08/08 01:20:04;;;;;;;1.15;0.82;;;14.50;99.90;;;;;;2034272;70;21075;-71
2021/08/08 01:22:30;;;;;;;6.58;0.95;;;14.50;99.90;;;;;;2034375;70;21031;-71
2021/08/08 01:24:56;;;;;;;1.22;1.00;;;14.50;99.90;;;;;;2034422;70;21034;-71
2021/08/08 01:27:23;;;;;;;3.08;0.95;;;14.60;99.90;;;;;;2034390;70;21008;-71
2021/08/08 01:29:49;;;;;;;1.60;0.93;;;14.50;99.90;;;;;;2034361;70;21147;-71
2021/08/08 01:32:15;;;;;;;1.85;0.80;;;14.50;99.90;;;;;;2034342;70;21038;-71
2021/08/08 01:34:41;;;;;;;1.10;0.90;;;14.50;99.90;;;;;;2034362;70;21035;-71
2021/08/08 01:37:07;;;;;;;1.07;0.70;;;14.50;99.90;;;;;;2034390;70;21011;-71
2021/08/08 01:39:33;;;;;;;2.27;1.10;;;14.40;99.90;;;;;;2034267;69;21030;-71
2021/08/08 01:41:59;;;;;;;6.35;0.90;;;14.50;99.90;;;;;;2034276;70;21034;-71
2021/08/08 01:44:25;;;;;;;8.08;1.20;;;14.40;99.90;;;;;;2034372;69;21067;-71
2021/08/08 01:46:52;;;;;;;6.97;1.07;;;14.30;99.90;;;;;;2034431;70;21012;-71
2021/08/08 01:49:18;;;;;;;5.72;1.40;;;14.30;99.90;;;;;;2034376;70;21062;-71
2021/08/08 01:51:44;;;;;;;4.55;1.15;;;14.20;99.90;;;;;;2034401;70;21125;-71
2021/08/08 01:54:10;;;;;;;2.17;0.90;;;14.10;99.90;;;;;;2034415;70;21026;-70
2021/08/08 01:56:37;;;;;;;3.58;0.90;;;14.20;99.90;;;;;;2034502;70;21035;-69
2021/08/08 01:59:03;;;;;;;4.25;1.05;;;14.20;99.90;;;;;;2034425;70;21050;-69
2021/08/08 02:01:29;;;;;;;4.47;0.95;;;14.30;99.90;;;;;;2034527;70;21044;-69
2021/08/08 02:03:55;;;;;;;0.82;0.70;;;14.20;99.90;;;;;;2034316;70;21144;-70
2021/08/08 02:06:21;;;;;;;6.90;1.07;;;14.30;99.90;;;;;;2034482;70;21071;-70
2021/08/08 02:08:48;;;;;;;0.80;0.78;;;14.20;99.90;;;;;;2034373;70;21424;-70
2021/08/08 02:11:14;;;;;;;1.75;0.80;;;14.20;99.90;;;;;;2034374;70;21411;-71
2021/08/08 02:13:40;;;;;;;3.60;0.95;;;14.20;99.90;;;;;;2034380;70;21470;-71
2021/08/08 02:16:06;;;;;;;2.00;0.98;;;14.10;99.90;;;;;;2034362;70;21474;-71
2021/08/08 02:18:32;;;;;;;4.05;0.80;;;14.10;99.90;;;;;;2034405;70;21411;-71
2021/08/08 02:20:58;;;;;;;2.85;1.00;;;14.20;99.90;;;;;;2034402;70;21391;-72
2021/08/08 02:23:24;;;;;;;0.80;0.80;;;14.20;99.90;;;;;;2034388;70;21027;-71
2021/08/08 02:25:51;;;;;;;2.80;1.10;;;14.20;99.90;;;;;;2034393;70;21104;-71
2021/08/08 02:28:17;;;;;;;1.72;0.82;;;14.20;99.90;;;;;;2034377;70;21120;-71
2021/08/08 02:30:43;;;;;;;9.40;0.90;;;14.20;99.90;;;;;;2034379;70;21473;-71
2021/08/08 02:33:09;;;;;;;2.95;0.80;;;14.10;99.90;;;;;;2034358;70;21424;-71
2021/08/08 02:35:35;;;;;;;9.63;0.90;;;14.10;99.90;;;;;;2034602;70;21500;-71
2021/08/08 02:38:01;;;;;;;2.15;0.70;;;14.00;99.90;;;;;;2034373;70;21551;-71
2021/08/08 02:40:28;;;;;;;2.75;0.88;;;14.00;99.90;;;;;;2034349;70;21528;-71
2021/08/08 02:42:54;;;;;;;3.47;1.00;;;14.00;99.90;;;;;;2034357;70;21011;-71
2021/08/08 02:45:20;;;;;;;6.62;0.95;;;14.00;99.90;;;;;;2034380;70;21038;-71
2021/08/08 02:47:46;;;;;;;2.27;1.00;;;13.90;99.90;;;;;;2034372;70;21112;-71
2021/08/08 02:50:12;;;;;;;2.85;1.20;;;14.00;99.90;;;;;;2034363;70;21108;-71
2021/08/08 02:52:41;;;;;;;5.72;1.27;;;14.00;99.90;;;;;;2034382;70;21012;-71
2021/08/08 02:55:06;;;;;;;2.52;1.10;;;14.00;99.90;;;;;;2033772;70;21468;-71
2021/08/08 02:57:32;;;;;;;5.33;1.35;;;14.00;99.90;;;;;;2034388;70;21587;-71
2021/08/08 02:59:58;;;;;;;3.55;1.12;;;13.90;99.90;;;;;;2034387;70;21762;-71
2021/08/08 03:02:24;;;;;;;5.45;0.98;;;13.90;99.90;;;;;;2034375;70;21376;-71
2021/08/08 03:04:50;;;;;;;3.30;0.90;;;13.70;99.90;;;;;;2034354;70;21462;-71
2021/08/08 03:07:17;;;;;;;2.27;0.90;;;13.70;99.90;;;;;;2017045;70;21124;-71
2021/08/08 03:09:43;;;;;;;2.12;0.93;;;13.80;99.90;;;;;;2034337;70;21046;-71
2021/08/08 03:12:09;;;;;;;3.35;1.10;;;13.70;99.90;;;;;;2032400;70;21067;-71
2021/08/08 03:14:35;;;;;;;2.90;1.27;;;13.70;99.90;;;;;;2025286;70;21059;-71
2021/08/08 03:17:01;;;;;;;9.23;1.12;;;13.70;99.90;;;;;;2015221;70;21043;-71
2021/08/08 03:19:27;;;;;;;3.30;0.90;;;13.70;99.90;;;;;;2034357;70;21112;-70
2021/08/08 03:21:53;;;;;;;6.17;1.12;;;13.70;99.90;;;;;;2034389;70;21015;-71
2021/08/08 03:24:19;;;;;;;1.60;0.90;;;13.70;99.90;;;;;;2034478;70;21050;-70
2021/08/08 03:26:46;;;;;;;1.52;0.75;;;13.60;99.90;;;;;;2034273;70;21152;-71
2021/08/08 03:29:12;;;;;;;7.05;1.05;;;13.40;99.90;;;;;;2034447;70;21116;-71
2021/08/08 03:31:38;;;;;;;6.22;0.82;;;13.40;99.90;;;;;;2034591;70;21020;-71
2021/08/08 03:34:04;;;;;;;2.05;0.65;;;13.50;99.90;;;;;;2034554;70;21039;-71
2021/08/08 03:36:30;;;;;;;1.98;0.95;;;13.50;99.90;;;;;;2034548;70;21131;-71
2021/08/08 03:38:56;;;;;;;1.50;0.80;;;13.50;99.90;;;;;;2034582;70;21104;-72
2021/08/08 03:41:22;;;;;;;4.28;0.80;;;13.40;99.90;;;;;;2034572;70;21060;-72
2021/08/08 03:43:48;;;;;;;13.93;1.25;;;13.30;99.90;;;;;;2034248;70;21075;-72
2021/08/08 03:46:15;;;;;;;6.00;0.88;;;13.30;99.90;;;;;;2034560;70;21080;-72
2021/08/08 03:48:41;;;;;;;1.00;0.90;;;13.40;99.90;;;;;;2034211;70;21083;-72
2021/08/08 03:51:07;;;;;;;7.62;1.15;;;13.20;99.90;;;;;;2034433;70;21067;-72
2021/08/08 03:53:33;;;;;;;6.37;1.20;;;13.20;99.90;;;;;;2034239;70;21160;-72
2021/08/08 03:55:59;;;;;;;3.22;0.98;;;13.20;99.90;;;;;;2034456;70;21089;-72
2021/08/08 03:58:30;;;;;;;8.38;1.17;;;13.10;99.90;;;;;;2034236;70;21159;-72
2021/08/08 04:00:53;;;;;;;1.00;0.90;;;13.10;99.90;;;;;;2033430;70;21086;-72
2021/08/08 04:03:19;;;;;;;1.10;0.90;;;13.10;99.90;;;;;;2034352;70;21486;-72
2021/08/08 04:05:45;;;;;;;3.27;0.90;;;13.00;99.90;;;;;;2034432;69;21522;-72
2021/08/08 04:08:11;;;;;;;2.52;0.90;;;13.10;99.90;;;;;;2034252;70;21460;-72
2021/08/08 04:10:38;;;;;;;8.63;1.30;;;13.10;99.90;;;;;;2034261;70;21460;-72
2021/08/08 04:13:04;;;;;;;6.08;1.00;;;13.10;99.90;;;;;;2034335;70;21085;-72
2021/08/08 04:15:30;;;;;;;6.60;1.12;;;13.10;99.90;;;;;;2034438;69;21043;-72
2021/08/08 04:17:56;;;;;;;1.55;0.90;;;13.00;99.90;;;;;;2034235;70;21051;-72
2021/08/08 04:20:22;;;;;;;0.95;0.80;;;12.90;99.90;;;;;;2034361;70;21038;-72
2021/08/08 04:22:48;;;;;;;2.37;1.27;;;12.90;99.90;;;;;;2034358;69;21007;-72
2021/08/08 04:25:14;;;;;;;2.10;1.05;;;13.00;99.90;;;;;;2034479;70;21050;-72
2021/08/08 04:27:40;;;;;;;2.47;1.22;;;13.00;99.90;;;;;;2034324;70;21031;-72
2021/08/08 04:30:06;;;;;;;9.25;1.20;;;12.90;99.90;;;;;;2034335;70;21039;-72
2021/08/08 04:32:33;;;;;;;4.17;1.30;;;12.90;99.90;;;;;;2034432;70;21007;-72
2021/08/08 04:34:59;;;;;;;3.52;1.22;;;12.90;99.90;;;;;;2034223;70;21071;-72
2021/08/08 04:37:25;;;;;;;4.75;1.00;;;13.10;99.90;;;;;;2034400;70;21017;-72
2021/08/08 04:39:51;;;;;;;4.03;1.57;;;13.00;99.90;;;;;;2034195;70;21075;-72
2021/08/08 04:42:17;;;;;;;5.35;1.30;;;13.00;99.90;;;;;;2034414;70;21015;-72
2021/08/08 04:44:43;;;;;;;3.60;1.30;;;12.90;99.90;;;;;;2027861;70;21075;-72
2021/08/08 04:47:09;;;;;;;9.98;1.37;;;13.00;99.90;;;;;;2024442;70;21093;-72
2021/08/08 04:49:35;;;;;;;2.35;1.45;;;12.90;99.90;;;;;;2034320;70;21490;-71
2021/08/08 04:52:03;;;;;;;3.33;1.10;;;13.00;99.90;;;;;;2034428;70;21396;-71
2021/08/08 04:54:29;;;;;;;1.80;1.10;;;12.90;99.90;;;;;;2034213;70;21079;-71
2021/08/08 04:56:55;;;;;;;1.50;1.00;;;12.90;99.90;;;;;;2034321;70;21006;-71
2021/08/08 04:59:21;;;;;;;3.52;1.07;;;13.00;99.90;;;;;;2024305;70;21050;-72
2021/08/08 05:01:47;;;;;;;9.48;1.10;;;13.00;99.90;;;;;;2034309;70;21136;-71
2021/08/08 05:04:13;;;;;;;2.60;1.10;;;13.10;99.90;;;;;;2034430;70;21045;-71
2021/08/08 05:06:39;;;;;;;1.75;1.20;;;13.20;99.90;;;;;;2034195;70;21208;-71
2021/08/08 05:09:05;;;;;;;2.27;1.15;;;13.10;99.90;;;;;;2034375;70;21026;-71
2021/08/08 05:11:32;;;;;;;1.32;1.00;;;13.10;99.90;;;;;;2033007;69;21495;-71
2021/08/08 05:13:58;;;;;;;9.20;1.10;;;13.10;99.90;;;;;;2034363;70;21193;-71
2021/08/08 05:16:25;;;;;;;3.87;1.10;;;13.10;99.90;;;;;;2033674;69;21575;-72
2021/08/08 05:18:51;;;;;;;3.08;1.00;;;13.30;99.90;;;;;;2030407;70;21427;-72
2021/08/08 05:21:17;;;;;;;2.00;1.17;;;13.30;99.90;;;;;;2030008;70;21559;-72
2021/08/08 05:23:43;;;;;;;10.05;2.10;;;13.30;99.90;;;;;;2025497;69;21466;-72
2021/08/08 05:26:09;;;;;;;2.55;1.27;;;13.30;99.90;;;;;;2034389;69;21513;-72
2021/08/08 05:28:35;;;;;;;6.08;1.30;;;13.30;99.90;;;;;;2034371;70;21039;-72
2021/08/08 05:31:01;;;;;;;1.57;1.00;;;13.30;99.90;;;;;;2034380;70;21127;-72
2021/08/08 05:33:28;;;;;;;1.25;1.10;;;13.40;99.90;;;;;;2034412;70;21035;-72
2021/08/08 05:35:54;;;;;;;3.50;1.15;;;13.50;99.90;;;;;;2034415;70;21046;-72
2021/08/08 05:38:20;;;;;;;5.80;1.60;;;13.50;99.90;;;;;;2034406;69;21063;-71
2021/08/08 05:40:46;;;;;;;5.25;1.42;;;13.50;99.90;;;;;;2034531;70;21047;-72
2021/08/08 05:43:12;;;;;;;1.57;1.30;;;13.50;99.90;;;;;;2034272;70;21115;-71
2021/08/08 05:45:39;;;;;;;4.95;1.65;;;13.50;99.90;;;;;;2034509;70;21115;-71
2021/08/08 05:48:05;;;;;;;2.42;1.50;;;13.60;99.90;;;;;;2034305;70;21034;-71
2021/08/08 05:50:31;;;;;;;3.80;1.40;;;13.80;99.90;;;;;;2034471;70;21062;-71
2021/08/08 05:52:57;;;;;;;4.42;1.47;;;13.90;99.90;;;;;;2034403;70;21031;-71
2021/08/08 05:55:23;;;;;;;3.58;0.95;;;13.90;99.90;;;;;;2034418;69;21046;-71
2021/08/08 05:57:49;;;;;;;3.00;1.55;;;14.00;99.90;;;;;;2034212;70;21121;-71
2021/08/08 06:00:15;;;;;;;3.60;1.75;;;14.20;99.90;;;;;;2034501;70;21015;-71
2021/08/08 06:02:41;;;;;;;3.10;1.30;;;14.30;99.90;;;;;;2034287;69;21087;-71
2021/08/08 06:05:08;;;;;;;1.60;1.10;;;14.50;99.90;;;;;;2034491;70;21046;-71
2021/08/08 06:07:34;;;;;;;3.87;1.00;;;14.60;99.90;;;;;;2034277;70;21042;-71
2021/08/08 06:10:00;;;;;;;3.02;1.25;;;14.70;99.90;;;;;;2034252;70;21179;-71
2021/08/08 06:12:26;;;;;;;3.35;0.88;;;14.80;99.90;;;;;;2034496;70;21039;-71
2021/08/08 06:14:52;;;;;;;2.67;0.90;;;15.10;99.90;;;;;;2034292;70;21019;-71
2021/08/08 06:17:18;;;;;;;4.85;1.05;;;15.20;99.90;;;;;;2034479;70;21076;-75
2021/08/08 06:19:45;;;;;;;1.67;0.70;;;15.50;99.90;;;;;;2034280;70;21064;-72
2021/08/08 06:22:13;;;;;;;1.00;0.90;;;15.70;99.90;;;;;;2034576;69;21213;-72
2021/08/08 06:24:38;;;;;;;1.65;0.82;;;15.80;99.90;;;;;;2034030;70;21063;-73
2021/08/08 06:27:05;;;;;;;1.62;0.95;;;15.80;99.90;;;;;;2034391;70;21020;-72
2021/08/08 06:29:31;;;;;;;1.40;0.68;;;16.00;99.90;;;;;;2034318;70;21051;-71
2021/08/08 06:31:57;;;;;;;5.00;0.80;;;16.20;99.90;;;;;;2034346;70;21079;-72
2021/08/08 06:34:23;;;;;;;6.60;0.78;;;16.30;99.90;;;;;;2034596;69;21046;-71
2021/08/08 06:36:50;;;;;;;1.10;0.78;;;16.40;99.90;;;;;;2034421;70;21140;-71
2021/08/08 06:39:16;;;;;;;1.57;0.60;;;16.60;99.90;;;;;;2034522;70;21066;-71
2021/08/08 06:41:42;;;;;;;2.58;0.80;;;16.80;99.90;;;;;;2034403;70;21035;-72
2021/08/08 06:44:08;;;;;;;2.10;0.70;;;16.90;99.90;;;;;;2034395;70;21164;-71
2021/08/08 06:46:34;;;;;;;1.15;0.47;;;17.10;99.90;;;;;;2034507;70;21124;-73
2021/08/08 06:49:00;;;;;;;2.00;0.60;;;17.20;99.90;;;;;;2034345;69;21179;-74
2021/08/08 06:51:27;;;;;;;1.42;0.57;;;17.30;99.90;;;;;;2034276;70;21079;-73
2021/08/08 06:53:53;;;;;;;1.80;0.50;;;17.50;99.90;;;;;;2034517;70;21043;-72
2021/08/08 06:56:19;;;;;;;1.42;0.75;;;17.70;99.90;;;;;;2034298;70;21055;-72
2021/08/08 06:58:45;;;;;;;6.28;0.85;;;17.80;99.90;;;;;;2034521;70;21451;-73
2021/08/08 07:01:11;;;;;;;1.40;0.53;;;17.90;99.90;;;;;;2034440;70;21387;-73
2021/08/08 07:03:37;;;;;;;1.92;0.53;;;18.10;99.90;;;;;;2034378;70;21539;-73
2021/08/08 07:06:03;;;;;;;1.55;0.62;;;18.30;99.90;;;;;;2034269;70;21552;-74
2021/08/08 07:08:29;;;;;;;1.50;0.70;;;18.40;99.90;;;;;;2034579;70;21502;-72
2021/08/08 07:10:56;;;;;;;1.45;0.60;;;18.60;99.90;;;;;;2034243;70;21447;-70
2021/08/08 07:13:22;;;;;;;1.35;0.60;;;18.90;99.90;;;;;;2034351;70;21038;-72
2021/08/08 07:15:48;;;;;;;3.33;0.82;;;19.00;99.90;;;;;;2028248;70;21212;-73
2021/08/08 07:18:14;;;;;;;1.92;0.70;;;19.00;99.90;;;;;;2021775;70;21030;-73
2021/08/08 07:20:40;;;;;;;4.95;0.60;;;19.20;99.90;;;;;;2013849;70;21071;-72
2021/08/08 07:23:06;;;;;;;1.22;0.50;;;19.70;99.90;;;;;;2032541;70;21046;-74
2021/08/08 07:25:32;;;;;;;0.98;0.40;;;19.90;99.90;;;;;;2011208;70;21038;-74
2021/08/08 07:28:00;;;;;;;3.85;0.50;;;20.00;99.90;;;;;;2032601;70;21179;-74
2021/08/08 07:30:26;;;;;;;5.65;0.40;;;19.90;99.90;;;;;;2013441;71;21460;-75
2021/08/08 07:32:52;;;;;;;1.60;0.45;;;20.30;99.90;;;;;;2022070;71;21436;-75
2021/08/08 07:35:18;;;;;;;1.12;0.50;;;20.20;99.90;;;;;;2034294;70;21423;-72
2021/08/08 07:37:44;;;;;;;2.25;0.55;;;20.50;99.90;;;;;;2007949;70;21455;-73
2021/08/08 07:40:10;;;;;;;3.12;0.70;;;20.80;99.90;;;;;;2026669;70;21519;-73
2021/08/08 07:42:36;;;;;;;1.57;0.50;;;21.00;99.90;;;;;;2034511;70;21492;-72
2021/08/08 07:45:02;;;;;;;1.42;0.68;;;20.70;99.90;;;;;;2008020;70;21150;-75
2021/08/08 07:47:28;;;;;;;2.35;0.68;;;20.10;99.90;;;;;;2034461;70;21116;-72
2021/08/08 07:49:55;;;;;;;3.30;0.62;;;19.50;99.90;;;;;;2034435;70;21124;-72
2021/08/08 07:52:21;;;;;;;1.45;0.70;;;19.10;99.90;;;;;;2034447;70;21019;-73
2021/08/08 07:54:47;;;;;;;1.25;0.53;;;19.10;99.90;;;;;;2034357;70;21137;-74
2021/08/08 07:57:13;;;;;;;3.95;0.90;;;19.80;99.90;;;;;;2034344;70;21046;-73
2021/08/08 07:59:40;;;;;;;1.67;0.80;;;20.60;99.90;;;;;;2034326;70;21078;-73
2021/08/08 08:02:06;;;;;;;1.00;0.50;;;20.90;99.90;;;;;;2034393;70;21024;-73
2021/08/08 08:04:32;;;;;;;2.00;0.62;;;21.00;99.90;;;;;;2034396;70;21039;-73
2021/08/08 08:06:58;;;;;;;2.80;0.70;;;21.20;99.90;;;;;;2034398;70;21143;-73
2021/08/08 08:09:24;;;;;;;1.20;0.50;;;20.60;99.90;;;;;;2034312;70;21116;-73
2021/08/08 08:11:50;;;;;;;0.45;0.30;;;20.80;99.90;;;;;;2034475;70;21082;-73
2021/08/08 08:14:17;;;;;;;1.70;0.55;;;20.90;99.90;;;;;;2034230;70;21068;-73
2021/08/08 08:16:43;;;;;;;1.07;0.62;;;21.30;99.90;;;;;;2034492;70;21035;-73
2021/08/08 08:19:09;;;;;;;2.02;0.80;;;21.10;99.90;;;;;;2034242;70;21071;-72
2021/08/08 08:21:35;;;;;;;2.12;0.70;;;20.80;99.90;;;;;;2034382;70;21128;-72
2021/08/08 08:24:01;;;;;;;1.50;0.68;;;20.70;99.90;;;;;;2034468;70;21019;-73
2021/08/08 08:26:28;;;;;;;2.37;0.70;;;21.00;99.90;;;;;;2034492;70;21111;-72
2021/08/08 08:28:54;;;;;;;0.35;0.35;;;21.10;99.90;;;;;;2034439;70;21524;-72
2021/08/08 08:31:20;;;;;;;3.92;0.90;;;21.10;99.90;;;;;;2034187;70;21594;-72
2021/08/08 08:33:47;;;;;;;1.47;0.75;;;20.80;99.90;;;;;;2034444;70;21116;-73
2021/08/08 08:36:13;;;;;;;1.62;0.78;;;20.20;99.90;;;;;;2034184;70;21079;-72
2021/08/08 08:38:39;;;;;;;2.35;0.82;;;20.40;99.90;;;;;;2034384;70;21119;-72
2021/08/08 08:41:05;;;;;;;1.00;0.42;;;20.60;99.90;;;;;;2034198;70;21067;-72
2021/08/08 08:43:31;;;;;;;2.30;0.82;;;20.90;99.90;;;;;;2034407;70;21124;-72
2021/08/08 08:45:57;;;;;;;1.70;0.50;;;21.30;99.90;;;;;;2034307;70;21039;-73
2021/08/08 08:48:23;;;;;;;1.42;0.57;;;21.50;99.90;;;;;;2034274;70;21031;-72
2021/08/08 08:50:49;;;;;;;1.70;0.62;;;22.00;99.90;;;;;;2034308;70;21042;-72
2021/08/08 08:53:16;;;;;;;1.20;0.57;;;21.90;99.90;;;;;;2034281;70;21035;-72
2021/08/08 08:55:42;;;;;;;1.47;0.53;;;22.50;99.90;;;;;;2034248;70;21042;-72
2021/08/08 08:58:08;;;;;;;0.75;0.30;;;22.40;99.90;;;;;;2034301;70;21039;-72
2021/08/08 09:00:34;;;;;;;0.53;0.45;;;21.80;99.90;;;;;;2034488;70;21042;-72
2021/08/08 09:03:00;;;;;;;2.90;0.78;;;22.00;99.90;;;;;;2034396;70;21086;-72
2021/08/08 09:05:27;;;;;;;0.53;0.42;;;22.20;99.90;;;;;;2034365;70;21031;-72
2021/08/08 09:07:53;;;;;;;1.87;0.70;;;22.00;99.90;;;;;;2034261;70;21495;-72
2021/08/08 09:10:19;;;;;;;2.65;0.80;;;22.00;99.90;;;;;;2034253;70;21038;-72
2021/08/08 09:12:45;;;;;;;3.37;0.85;;;22.00;99.90;;;;;;2034275;70;21145;-72
2021/08/08 09:15:12;;;;;;;3.50;0.75;;;21.60;99.90;;;;;;2034279;70;21068;-72
2021/08/08 09:17:38;;;;;;;2.05;0.60;;;21.80;99.90;;;;;;2034265;70;21031;-71
2021/08/08 09:20:04;;;;;;;2.08;0.62;;;21.80;99.90;;;;;;2034282;70;21080;-72
2021/08/08 09:22:30;;;;;;;0.70;0.42;;;21.60;99.90;;;;;;2034348;70;21160;-72
2021/08/08 09:24:56;;;;;;;1.32;0.65;;;21.00;99.90;;;;;;2034272;70;21141;-72
2021/08/08 09:27:22;;;;;;;2.00;0.80;;;20.70;99.90;;;;;;2034286;70;21072;-72
2021/08/08 09:29:48;;;;;;;1.25;0.68;;;20.40;99.90;;;;;;2034247;70;21079;-72
2021/08/08 09:32:14;;;;;;;1.40;0.60;;;20.60;99.90;;;;;;2034258;70;21116;-72
2021/08/08 09:34:41;;;;;;;2.58;0.90;;;20.70;99.90;;;;;;2034368;70;21159;-72
2021/08/08 09:37:07;;;;;;;1.35;0.62;;;20.60;99.90;;;;;;2034247;70;21123;-72
2021/08/08 09:39:33;;;;;;;1.10;0.80;;;20.60;99.90;;;;;;2034274;70;21075;-71
2021/08/08 09:41:59;;;;;;;1.67;0.60;;;20.70;99.90;;;;;;2034221;70;21072;-72
2021/08/08 09:44:25;;;;;;;4.62;0.90;;;21.20;99.90;;;;;;2034207;70;21137;-72
2021/08/08 09:46:51;;;;;;;3.52;0.70;;;22.00;99.90;;;;;;2034340;70;21043;-71
2021/08/08 09:49:17;;;;;;;0.85;0.53;;;22.30;99.90;;;;;;2034281;70;21076;-70
2021/08/08 09:51:43;;;;;;;1.72;0.70;;;22.20;99.90;;;;;;2034207;70;21219;-70
2021/08/08 09:54:10;;;;;;;1.57;0.90;;;22.30;99.90;;;;;;2034220;70;21071;-71
2021/08/08 09:56:36;;;;;;;3.50;1.02;;;22.70;99.90;;;;;;2034107;70;21093;-72
2021/08/08 09:59:02;;;;;;;8.28;1.00;;;23.40;99.90;;;;;;2034358;70;21113;-72
2021/08/08 10:01:28;;;;;;;3.92;1.20;;;24.30;99.90;;;;;;2034420;70;21046;-72
2021/08/08 10:03:54;;;;;;;3.87;1.35;;;24.90;99.90;;;;;;2034345;69;21043;-73
2021/08/08 10:06:20;;;;;;;4.80;0.70;;;24.30;99.90;;;;;;2034598;70;21086;-72
2021/08/08 10:08:47;;;;;;;3.40;1.20;;;24.30;99.90;;;;;;2034571;70;21039;-72
2021/08/08 10:11:13;;;;;;;1.98;1.22;;;24.20;99.90;;;;;;2034457;70;21490;-72
2021/08/08 10:13:39;;;;;;;1.85;1.00;;;24.00;99.90;;;;;;2034270;70;21577;-72
2021/08/08 10:16:09;;;;;;;3.58;0.90;;;24.10;99.90;;;;;;2034459;70;21460;-72
2021/08/08 10:18:33;;;;;;;0.88;0.60;;;23.00;99.90;;;;;;2024520;70;21084;-72
2021/08/08 10:20:59;;;;;;;1.12;0.90;;;22.50;99.90;;;;;;2030881;71;21039;-73
2021/08/08 10:23:27;;;;;;;1.32;0.95;;;22.40;99.90;;;;;;2033689;70;21064;-72
2021/08/08 10:25:53;;;;;;;1.22;0.88;;;22.70;99.90;;;;;;2032698;70;21168;-72
2021/08/08 10:28:20;;;;;;;1.98;1.10;;;22.90;99.90;;;;;;1998045;71;21494;-72
2021/08/08 10:30:46;;;;;;;1.20;0.70;;;23.00;99.90;;;;;;2033337;70;21416;-72
2021/08/08 10:33:12;;;;;;;2.35;0.68;;;23.50;99.90;;;;;;2034360;70;21456;-72
2021/08/08 10:35:38;;;;;;;1.47;0.57;;;23.50;99.90;;;;;;2034301;70;21458;-72
2021/08/08 10:38:04;;;;;;;3.60;1.00;;;23.30;99.90;;;;;;2030894;70;21411;-72
2021/08/08 10:40:32;;;;;;;2.60;0.90;;;23.20;99.90;;;;;;2009102;70;21516;-72
2021/08/08 10:42:58;;;;;;;0.53;0.50;;;22.70;99.90;;;;;;2016101;70;21067;-72
2021/08/08 10:45:24;;;;;;;2.70;0.93;;;22.50;99.90;;;;;;2034475;70;21058;-73
2021/08/08 10:47:50;;;;;;;3.02;0.62;;;22.30;99.90;;;;;;2034365;70;21098;-73
2021/08/08 10:50:16;;;;;;;2.80;0.80;;;22.60;99.90;;;;;;2034454;70;21027;-73
2021/08/08 10:52:43;;;;;;;2.27;0.62;;;23.20;99.90;;;;;;2034252;70;21079;-73
2021/08/08 10:55:09;;;;;;;1.70;0.50;;;23.20;99.90;;;;;;2034498;70;21156;-72
2021/08/08 10:57:35;;;;;;;2.00;0.82;;;23.00;99.90;;;;;;2034277;70;21145;-72
2021/08/08 11:00:01;;;;;;;10.10;0.62;;;22.80;99.90;;;;;;2034502;70;21051;-72
2021/08/08 11:02:27;;;;;;;0.98;0.50;;;23.10;99.90;;;;;;2034283;70;21148;-72
2021/08/08 11:04:54;;;;;;;2.22;0.70;;;23.40;99.90;;;;;;2034525;70;21461;-73
2021/08/08 11:07:20;;;;;;;1.42;0.62;;;23.50;99.90;;;;;;2034321;70;21078;-72
2021/08/08 11:09:46;;;;;;;1.45;0.70;;;23.50;99.90;;;;;;2034396;70;21075;-72
2021/08/08 11:12:16;;;;;;;2.33;0.65;;;23.50;99.90;;;;;;2034455;70;21050;-72
2021/08/08 11:14:40;;;;;;;1.20;0.72;;;23.30;99.90;;;;;;2033594;70;21122;-72
2021/08/08 11:17:06;;;;;;;1.07;0.80;;;23.50;99.90;;;;;;2034297;70;21120;-73
2021/08/08 11:19:32;;;;;;;2.35;0.80;;;23.70;99.90;;;;;;2034288;70;21071;-73
2021/08/08 11:21:59;;;;;;;1.85;0.80;;;23.50;99.90;;;;;;2034359;70;21132;-73
2021/08/08 11:24:25;;;;;;;1.55;0.60;;;23.70;99.90;;;;;;2034361;70;21119;-73
2021/08/08 11:26:51;;;;;;;0.80;0.60;;;23.60;99.90;;;;;;2034315;70;21062;-72
2021/08/08 11:29:17;;;;;;;1.50;0.60;;;24.00;99.90;;;;;;2034341;70;21043;-72
2021/08/08 11:31:43;;;;;;;1.40;0.60;;;23.90;99.90;;;;;;2034489;70;21051;-72
2021/08/08 11:34:09;;;;;;;2.10;0.75;;;23.90;99.90;;;;;;2034457;70;21160;-72
2021/08/08 11:36:35;;;;;;;0.80;0.50;;;23.60;99.90;;;;;;2034449;69;21031;-72
2021/08/08 11:39:01;;;;;;;0.68;0.50;;;23.40;99.90;;;;;;2034420;70;21165;-72
2021/08/08 11:41:29;;;;;;;4.08;0.90;;;23.50;99.90;;;;;;2034444;70;21043;-72
2021/08/08 11:43:55;;;;;;;1.22;0.50;;;23.90;99.90;;;;;;2034297;70;21116;-72
2021/08/08 11:46:21;;;;;;;3.05;0.80;;;24.00;99.90;;;;;;2034236;70;21020;-73
2021/08/08 11:48:47;;;;;;;1.00;0.60;;;23.80;99.90;;;;;;2034302;70;21046;-73
2021/08/08 11:51:14;;;;;;;0.70;0.60;;;24.00;99.90;;;;;;2034371;70;21054;-72
2021/08/08 11:53:40;;;;;;;1.27;0.50;;;23.60;99.90;;;;;;2034175;70;21076;-72
2021/08/08 11:56:06;;;;;;;1.27;0.70;;;23.20;99.90;;;;;;2034223;70;21032;-73
2021/08/08 11:58:32;;;;;;;1.12;0.60;;;23.40;99.90;;;;;;2034380;70;21075;-73
2021/08/08 12:00:58;;;;;;;1.60;0.60;;;23.80;99.90;;;;;;2034326;70;21108;-73
2021/08/08 12:03:24;;;;;;;1.22;0.50;;;24.10;99.90;;;;;;2034304;70;21043;-73
2021/08/08 12:05:50;;;;;;;1.20;0.68;;;24.50;99.90;;;;;;2034305;70;21063;-73
2021/08/08 12:08:16;;;;;;;2.17;0.85;;;24.10;99.90;;;;;;2034290;70;21043;-73
2021/08/08 12:10:43;;;;;;;0.55;0.47;;;23.50;99.90;;;;;;2034253;69;21046;-72
2021/08/08 12:13:09;;;;;;;1.02;0.50;;;23.90;99.90;;;;;;2034218;70;21573;-72
2021/08/08 12:15:35;;;;;;;1.62;0.75;;;24.60;99.90;;;;;;2034416;70;21487;-72
2021/08/08 12:18:01;;;;;;;3.08;0.65;;;24.30;99.90;;;;;;2034403;70;21442;-72
2021/08/08 12:20:27;;;;;;;1.52;0.53;;;23.90;99.90;;;;;;2034206;70;21511;-72
2021/08/08 12:22:53;;;;;;;1.75;0.75;;;23.20;99.90;;;;;;2034191;70;21472;-72
2021/08/08 12:25:19;;;;;;;1.77;0.70;;;23.40;99.90;;;;;;2034327;70;21531;-73
2021/08/08 12:27:52;;;;;;;1.32;0.57;;;23.60;99.90;;;;;;2034043;70;21087;-73
2021/08/08 12:30:16;;;;;;;3.02;0.62;;;23.50;99.90;;;;;;2033318;70;21091;-73
2021/08/08 12:32:42;;;;;;;4.58;0.60;;;23.30;99.90;;;;;;2034443;70;21054;-72
2021/08/08 12:35:09;;;;;;;0.88;0.78;;;23.40;99.90;;;;;;2034246;70;21076;-72
2021/08/08 12:37:35;;;;;;;0.80;0.60;;;23.50;99.90;;;;;;2034386;70;21050;-73
2021/08/08 12:40:02;;;;;;;1.90;0.60;;;23.90;99.90;;;;;;2034184;70;21165;-72